Time;durP1;ratioP1;P1;durP2;ratioP2;P2;SDS_P1;SDS_P2;PMS_P1;PMS_P2;Temp;Humidity;BMP_temperature;BMP_pressure;BME280_temperature;BME280_humidity;BME280_pressure;Samples;Min_cycle;Max_cycle;Signal;HPM_P1;HPM_P2
2022/04/07 00:01:14;;;;;;;14.02;2.88;;;14.90;94.40;;;;;;5052609;28;20017;-51
2022/04/07 00:03:40;;;;;;;12.20;3.45;;;14.90;94.60;;;;;;5052681;28;20540;-51
2022/04/07 00:06:09;;;;;;;13.73;3.45;;;14.80;94.90;;;;;;5052428;28;20047;-50
2022/04/07 00:08:39;;;;;;;19.45;4.40;;;14.90;94.60;;;;;;5052523;28;20393;-51
2022/04/07 00:11:06;;;;;;;11.43;3.25;;;14.90;94.70;;;;;;5052751;28;20485;-51
2022/04/07 00:13:32;;;;;;;16.77;3.53;;;14.80;95.30;;;;;;5053503;28;20036;-51
2022/04/07 00:16:00;;;;;;;12.65;2.55;;;14.60;96.20;;;;;;5056063;28;20033;-51
2022/04/07 00:18:28;;;;;;;16.75;3.08;;;14.50;97.20;;;;;;5056400;28;20029;-51
2022/04/07 00:20:54;;;;;;;12.50;2.38;;;14.30;98.50;;;;;;5055768;28;20036;-51
2022/04/07 00:23:21;;;;;;;11.32;2.38;;;14.00;99.90;;;;;;5056030;28;20115;-51
2022/04/07 00:25:47;;;;;;;10.10;3.28;;;13.80;99.90;;;;;;5056337;28;20106;-51
2022/04/07 00:28:13;;;;;;;10.52;2.60;;;13.70;99.90;;;;;;5055956;28;20036;-51
2022/04/07 00:30:39;;;;;;;13.02;2.35;;;13.50;99.90;;;;;;5055564;28;20033;-51
2022/04/07 00:33:09;;;;;;;9.63;2.97;;;13.50;99.90;;;;;;5055931;28;20036;-51
2022/04/07 00:35:36;;;;;;;8.95;2.40;;;13.20;99.90;;;;;;5037724;28;20036;-51
2022/04/07 00:38:02;;;;;;;11.35;2.20;;;13.10;99.90;;;;;;5053766;28;20029;-51
2022/04/07 00:40:28;;;;;;;15.20;3.22;;;13.00;99.90;;;;;;5055554;28;20025;-51
2022/04/07 00:42:54;;;;;;;7.45;2.10;;;12.90;99.90;;;;;;5055474;28;20028;-51
2022/04/07 00:45:21;;;;;;;11.30;2.67;;;12.80;99.90;;;;;;5055702;28;20074;-51
2022/04/07 00:47:47;;;;;;;14.63;3.92;;;12.70;99.90;;;;;;5055418;28;20033;-51
2022/04/07 00:50:15;;;;;;;11.98;4.28;;;12.70;99.90;;;;;;5055240;28;20040;-51
2022/04/07 00:52:43;;;;;;;21.65;4.47;;;12.90;99.90;;;;;;5053575;28;20044;-51
2022/04/07 00:55:11;;;;;;;18.10;3.28;;;13.00;99.90;;;;;;5055219;28;20472;-52
2022/04/07 00:57:39;;;;;;;12.13;3.65;;;12.70;99.90;;;;;;5055545;28;20033;-51
2022/04/07 01:00:07;;;;;;;18.13;4.22;;;12.60;99.90;;;;;;5055240;28;20052;-51
2022/04/07 01:02:33;;;;;;;15.57;2.33;;;12.80;99.90;;;;;;5020179;28;20029;-51
2022/04/07 01:04:59;;;;;;;11.57;3.58;;;12.90;99.90;;;;;;5054983;28;20040;-51
2022/04/07 01:07:25;;;;;;;16.05;3.40;;;13.00;99.90;;;;;;5053727;28;20037;-51
2022/04/07 01:09:52;;;;;;;13.50;3.80;;;13.00;99.90;;;;;;5053156;28;20044;-51
2022/04/07 01:12:17;;;;;;;12.32;3.13;;;12.90;99.90;;;;;;5052956;28;20144;-51
2022/04/07 01:15:04;;;;;;;11.10;4.70;;;12.40;99.90;;;;;;5053348;28;20532;-51
2022/04/07 01:17:30;;;;;;;15.20;4.75;;;12.50;99.90;;;;;;5055158;28;20551;-51
2022/04/07 01:19:56;;;;;;;14.90;3.92;;;12.80;99.90;;;;;;5054666;28;20088;-51
2022/04/07 01:22:23;;;;;;;11.27;3.75;;;12.60;99.90;;;;;;5054786;28;20037;-51
2022/04/07 01:24:49;;;;;;;13.90;3.60;;;12.40;99.90;;;;;;5055052;28;20033;-52
2022/04/07 01:27:16;;;;;;;16.80;3.20;;;12.30;99.90;;;;;;5054777;28;20033;-51
2022/04/07 01:29:43;;;;;;;16.98;3.53;;;12.20;99.90;;;;;;5052906;28;20118;-51
2022/04/07 01:32:23;;;;;;;19.67;4.50;;;12.00;99.90;;;;;;5052848;28;20045;-52
2022/04/07 01:34:50;;;;;;;6.60;1.77;;;12.00;99.90;;;;;;5054724;28;20048;-52
2022/04/07 01:37:18;;;;;;;11.93;3.15;;;11.90;99.90;;;;;;5054449;28;20029;-52
2022/04/07 01:39:45;;;;;;;12.15;3.40;;;11.90;99.90;;;;;;5053324;28;20090;-52
2022/04/07 01:42:14;;;;;;;17.17;3.10;;;11.70;99.90;;;;;;5054517;28;20116;-52
2022/04/07 01:44:46;;;;;;;9.60;2.45;;;11.70;99.90;;;;;;5054382;28;20105;-52
2022/04/07 01:47:14;;;;;;;5.57;2.10;;;11.50;99.90;;;;;;5054278;28;20025;-51
2022/04/07 01:49:44;;;;;;;7.18;1.70;;;11.40;99.90;;;;;;5054618;28;20025;-51
2022/04/07 01:52:12;;;;;;;7.70;2.45;;;11.30;99.90;;;;;;5054187;28;20036;-51
2022/04/07 01:54:42;;;;;;;15.23;3.85;;;11.20;99.90;;;;;;5054547;28;20063;-51
2022/04/07 01:57:09;;;;;;;7.82;2.15;;;11.20;99.90;;;;;;5054183;28;20136;-51
2022/04/07 01:59:36;;;;;;;16.70;2.92;;;11.20;99.90;;;;;;5053941;28;20091;-53
2022/04/07 02:02:02;;;;;;;16.23;3.85;;;11.50;99.90;;;;;;5053991;28;20481;-52
2022/04/07 02:04:28;;;;;;;14.43;3.85;;;11.60;99.90;;;;;;5054191;28;20036;-51
2022/04/07 02:06:54;;;;;;;10.65;2.70;;;11.70;99.90;;;;;;5054050;28;20051;-52
2022/04/07 02:09:19;;;;;;;14.60;4.43;;;11.60;99.90;;;;;;5053574;28;20468;-51
2022/04/07 02:11:46;;;;;;;11.32;3.00;;;11.70;99.90;;;;;;5054134;28;20103;-52
2022/04/07 02:14:12;;;;;;;12.45;2.58;;;11.60;99.90;;;;;;5053933;28;20040;-51
2022/04/07 02:16:37;;;;;;;10.98;2.13;;;11.40;99.90;;;;;;5053712;28;20028;-52
2022/04/07 02:19:03;;;;;;;7.93;1.75;;;11.20;99.90;;;;;;5053792;28;20036;-51
2022/04/07 02:21:29;;;;;;;15.52;3.30;;;11.00;99.90;;;;;;5053871;28;20420;-51
2022/04/07 02:23:55;;;;;;;13.32;3.47;;;11.10;99.90;;;;;;5068861;28;20130;-51
2022/04/07 02:26:20;;;;;;;13.55;2.58;;;11.20;99.90;;;;;;5035096;28;20480;-51
2022/04/07 02:28:46;;;;;;;6.97;1.85;;;11.10;99.90;;;;;;5054283;28;20463;-51
2022/04/07 02:31:12;;;;;;;10.25;1.95;;;11.00;99.90;;;;;;5054191;28;20111;-51
2022/04/07 02:33:38;;;;;;;9.75;1.70;;;11.00;99.90;;;;;;5054257;28;20028;-51
2022/04/07 02:36:06;;;;;;;15.38;2.90;;;10.90;99.90;;;;;;5053274;28;20033;-51
2022/04/07 02:38:33;;;;;;;16.23;3.38;;;11.00;99.90;;;;;;5053851;28;20053;-51
2022/04/07 02:40:59;;;;;;;9.00;2.72;;;11.00;99.90;;;;;;5053715;28;20365;-51
2022/04/07 02:43:25;;;;;;;11.38;2.55;;;11.10;99.90;;;;;;5053372;28;20059;-51
2022/04/07 02:45:51;;;;;;;14.38;2.88;;;11.20;99.90;;;;;;5051634;28;20082;-51
2022/04/07 02:48:17;;;;;;;15.60;3.28;;;11.20;99.90;;;;;;5053317;28;20025;-52
2022/04/07 02:50:43;;;;;;;13.52;3.95;;;11.30;99.90;;;;;;5053061;28;20037;-52
2022/04/07 02:53:09;;;;;;;15.23;2.90;;;11.40;99.90;;;;;;5053596;28;20033;-51
2022/04/07 02:55:35;;;;;;;8.32;2.42;;;11.30;99.90;;;;;;5068127;28;20041;-51
2022/04/07 02:58:01;;;;;;;14.98;3.53;;;11.20;99.90;;;;;;5053111;28;20503;-51
2022/04/07 03:00:27;;;;;;;11.82;2.30;;;11.10;99.90;;;;;;5052839;28;20041;-51
2022/04/07 03:02:52;;;;;;;11.60;3.72;;;11.30;99.90;;;;;;5068074;28;20033;-51
2022/04/07 03:05:18;;;;;;;12.90;4.43;;;11.60;99.90;;;;;;5052992;28;20155;-52
2022/04/07 03:07:44;;;;;;;14.10;6.22;;;11.80;99.90;;;;;;5053013;28;20055;-52
2022/04/07 03:10:10;;;;;;;12.20;3.33;;;12.00;99.90;;;;;;5053058;28;20035;-52
2022/04/07 03:12:37;;;;;;;13.70;3.97;;;12.20;99.90;;;;;;5053015;28;20472;-52
2022/04/07 03:15:04;;;;;;;15.13;3.47;;;12.40;99.90;;;;;;5052910;28;20067;-51
2022/04/07 03:17:31;;;;;;;19.52;4.45;;;12.40;99.90;;;;;;5053125;28;20100;-52
2022/04/07 03:19:57;;;;;;;11.40;3.55;;;12.60;99.90;;;;;;5052961;28;20112;-52
2022/04/07 03:22:23;;;;;;;10.27;3.72;;;12.60;99.90;;;;;;5053159;28;20052;-52
2022/04/07 03:24:49;;;;;;;12.13;3.92;;;12.60;99.90;;;;;;5052960;28;20495;-52
2022/04/07 03:27:15;;;;;;;12.88;3.10;;;12.60;99.90;;;;;;5053152;28;20393;-52
2022/04/07 03:29:41;;;;;;;11.50;2.70;;;12.80;99.90;;;;;;5067590;28;20037;-52
2022/04/07 03:32:07;;;;;;;10.77;2.83;;;12.80;99.90;;;;;;5067980;28;20072;-52
2022/04/07 03:34:39;;;;;;;10.80;3.17;;;13.00;99.90;;;;;;5034499;28;20064;-52
2022/04/07 03:37:06;;;;;;;15.23;3.30;;;13.10;99.90;;;;;;5052868;28;20112;-52
2022/04/07 03:39:32;;;;;;;7.13;2.05;;;13.30;99.90;;;;;;5017646;28;20044;-52
2022/04/07 03:41:59;;;;;;;18.40;4.18;;;13.10;99.90;;;;;;5052993;28;20029;-52
2022/04/07 03:44:25;;;;;;;9.60;2.00;;;13.10;99.90;;;;;;5050667;28;20485;-53
2022/04/07 03:46:51;;;;;;;12.00;2.70;;;13.00;99.90;;;;;;5053066;28;20369;-52
2022/04/07 03:49:17;;;;;;;8.18;2.58;;;13.00;99.90;;;;;;5053282;28;20041;-52
2022/04/07 03:51:43;;;;;;;12.27;2.45;;;13.20;99.90;;;;;;5056391;28;20108;-52
2022/04/07 03:54:08;;;;;;;13.13;2.95;;;13.30;99.90;;;;;;5056549;28;20029;-52
2022/04/07 03:56:34;;;;;;;11.35;2.67;;;13.30;99.90;;;;;;5056329;28;20139;-52
2022/04/07 03:59:00;;;;;;;7.88;2.25;;;13.30;99.90;;;;;;5056289;28;20182;-52
2022/04/07 04:01:27;;;;;;;9.35;2.00;;;13.30;99.90;;;;;;5047894;28;20377;-52
2022/04/07 04:03:53;;;;;;;9.45;2.20;;;13.20;99.90;;;;;;5029620;28;20025;-52
2022/04/07 04:06:19;;;;;;;8.95;1.83;;;13.20;99.90;;;;;;5032280;28;20029;-52
2022/04/07 04:08:44;;;;;;;8.75;2.45;;;13.20;99.90;;;;;;5034282;28;20416;-51
2022/04/07 04:11:12;;;;;;;8.68;2.00;;;13.20;99.90;;;;;;5034254;28;20041;-52
2022/04/07 04:13:38;;;;;;;9.20;1.98;;;13.10;99.90;;;;;;5036014;28;20092;-52
2022/04/07 04:16:05;;;;;;;5.97;2.22;;;13.10;99.90;;;;;;5035993;28;20033;-52
2022/04/07 04:18:31;;;;;;;10.40;2.88;;;13.10;99.90;;;;;;5017982;28;20034;-52
2022/04/07 04:20:57;;;;;;;8.13;2.38;;;13.10;99.90;;;;;;5034320;28;20107;-52
2022/04/07 04:23:23;;;;;;;8.35;1.88;;;13.00;99.90;;;;;;5035853;28;20477;-52
2022/04/07 04:25:49;;;;;;;5.15;2.10;;;13.00;99.90;;;;;;5035864;28;20048;-52
2022/04/07 04:28:14;;;;;;;9.55;2.72;;;13.00;99.90;;;;;;5036234;28;20369;-52
2022/04/07 04:30:40;;;;;;;8.77;3.58;;;12.90;99.90;;;;;;5032628;28;20045;-52
2022/04/07 04:33:06;;;;;;;11.48;2.47;;;13.00;99.90;;;;;;5041755;28;20116;-52
2022/04/07 04:35:32;;;;;;;8.07;2.03;;;12.90;99.90;;;;;;5050037;28;20035;-52
2022/04/07 04:37:58;;;;;;;7.00;2.20;;;12.90;99.90;;;;;;5035676;28;20029;-52
2022/04/07 04:40:24;;;;;;;8.48;2.70;;;12.90;99.90;;;;;;5042534;28;20067;-52
2022/04/07 04:42:50;;;;;;;6.80;2.33;;;12.80;99.90;;;;;;5036367;28;20033;-52
2022/04/07 04:45:16;;;;;;;11.38;2.22;;;12.80;99.90;;;;;;4996820;28;20053;-52
2022/04/07 04:47:41;;;;;;;7.90;3.00;;;12.70;99.90;;;;;;5023823;28;20037;-52
2022/04/07 04:50:08;;;;;;;5.97;2.15;;;12.70;99.90;;;;;;5049819;28;20041;-52
2022/04/07 04:52:34;;;;;;;9.55;2.60;;;12.60;99.90;;;;;;5033498;28;20493;-52
2022/04/07 04:55:00;;;;;;;12.00;4.00;;;12.50;99.90;;;;;;5035051;28;20033;-52
2022/04/07 04:57:27;;;;;;;11.85;4.78;;;12.40;99.90;;;;;;5034329;28;20037;-52
2022/04/07 04:59:52;;;;;;;13.70;3.47;;;12.50;99.90;;;;;;5034625;28;20420;-52
2022/04/07 05:02:18;;;;;;;11.55;4.18;;;12.40;99.90;;;;;;5035489;28;20120;-52
2022/04/07 05:04:44;;;;;;;6.10;2.28;;;12.40;99.90;;;;;;5033451;28;20036;-52
2022/04/07 05:07:10;;;;;;;8.65;6.32;;;12.40;99.90;;;;;;5023134;28;20022;-52
2022/04/07 05:09:37;;;;;;;10.77;3.67;;;12.40;99.90;;;;;;5030257;28;20076;-52
2022/04/07 05:12:03;;;;;;;11.82;3.08;;;12.30;99.90;;;;;;5015983;28;20381;-52
2022/04/07 05:14:29;;;;;;;8.05;2.60;;;12.30;99.90;;;;;;5052816;28;20021;-52
2022/04/07 05:16:55;;;;;;;8.95;2.90;;;12.30;99.90;;;;;;5036600;28;20035;-52
2022/04/07 05:19:20;;;;;;;9.57;2.97;;;12.40;99.90;;;;;;5053094;28;20091;-52
2022/04/07 05:21:49;;;;;;;7.20;2.50;;;12.40;99.90;;;;;;5054814;28;20052;-52
2022/04/07 05:24:17;;;;;;;9.68;2.55;;;12.50;99.90;;;;;;5055143;28;20033;-52
2022/04/07 05:26:47;;;;;;;7.95;3.53;;;12.60;99.90;;;;;;5050219;28;20075;-53
2022/04/07 05:29:13;;;;;;;10.85;5.70;;;12.70;99.90;;;;;;5021455;28;20044;-52
2022/04/07 05:31:38;;;;;;;5.95;2.63;;;12.80;99.90;;;;;;5033063;28;20033;-52
2022/04/07 05:34:04;;;;;;;8.32;2.38;;;12.90;99.90;;;;;;5034798;28;20030;-52
2022/04/07 05:36:31;;;;;;;8.88;2.50;;;13.00;99.90;;;;;;5034852;28;20049;-52
2022/04/07 05:38:57;;;;;;;8.93;2.63;;;13.00;99.90;;;;;;5015788;28;20053;-53
2022/04/07 05:41:23;;;;;;;5.00;2.10;;;13.00;99.90;;;;;;5036159;28;20035;-52
2022/04/07 05:43:48;;;;;;;4.82;2.25;;;13.10;99.90;;;;;;5023970;28;20025;-52
2022/04/07 05:46:14;;;;;;;7.13;3.05;;;13.10;99.90;;;;;;5023398;28;20029;-53
2022/04/07 05:48:40;;;;;;;7.90;2.20;;;13.10;99.90;;;;;;5037199;28;20481;-52
2022/04/07 05:51:06;;;;;;;5.85;2.40;;;13.10;99.90;;;;;;5054123;28;20094;-52
2022/04/07 05:53:31;;;;;;;8.55;3.03;;;13.30;99.90;;;;;;5040905;28;20036;-52
2022/04/07 05:55:58;;;;;;;9.63;2.28;;;;;;;;;;5039278;28;20067;-52
2022/04/07 05:58:24;;;;;;;9.20;4.65;;;13.50;99.90;;;;;;5053967;28;20033;-52
2022/04/07 06:00:51;;;;;;;7.55;3.10;;;13.60;99.90;;;;;;5054162;28;20064;-52
2022/04/07 06:03:17;;;;;;;9.30;3.92;;;13.60;99.90;;;;;;5054290;28;20028;-52
2022/04/07 06:05:42;;;;;;;12.52;4.25;;;13.70;99.90;;;;;;5054059;28;20025;-52
2022/04/07 06:08:08;;;;;;;39.63;22.38;;;13.80;99.90;;;;;;5052203;28;20045;-53
2022/04/07 06:10:35;;;;;;;8.85;3.53;;;13.90;99.90;;;;;;5053395;28;20083;-52
2022/04/07 06:13:02;;;;;;;12.38;3.55;;;14.00;99.90;;;;;;5053951;28;20377;-53
2022/04/07 06:15:29;;;;;;;7.78;3.15;;;14.00;99.90;;;;;;5054010;28;20025;-52
2022/04/07 06:17:55;;;;;;;9.50;7.32;;;14.10;99.90;;;;;;5054189;28;20040;-52
2022/04/07 06:20:21;;;;;;;7.55;4.30;;;14.20;99.90;;;;;;5053905;28;20769;-52
2022/04/07 06:22:47;;;;;;;9.63;3.00;;;14.20;99.90;;;;;;5053802;28;20078;-52
2022/04/07 06:25:13;;;;;;;7.95;3.92;;;14.20;99.90;;;;;;5053617;28;20025;-52
2022/04/07 06:27:44;;;;;;;7.78;3.55;;;14.40;99.90;;;;;;5038810;28;20033;-54
2022/04/07 06:30:11;;;;;;;10.52;4.45;;;;;;;;;;5048970;28;20033;-52
2022/04/07 06:32:38;;;;;;;11.00;5.32;;;;;;;;;;5027143;28;20029;-53
2022/04/07 06:35:05;;;;;;;10.32;4.80;;;14.70;99.90;;;;;;5042680;28;20036;-53
2022/04/07 06:37:31;;;;;;;7.85;4.60;;;14.70;99.90;;;;;;5035449;28;20384;-52
2022/04/07 06:40:01;;;;;;;7.05;3.78;;;14.80;99.90;;;;;;5053387;28;20354;-53
2022/04/07 06:42:28;;;;;;;9.68;4.95;;;14.80;99.90;;;;;;5053652;28;20052;-52
2022/04/07 06:44:57;;;;;;;6.65;2.40;;;14.90;99.90;;;;;;5032264;28;20477;-52
2022/04/07 06:47:23;;;;;;;10.85;4.07;;;14.90;99.90;;;;;;5039081;28;20496;-52
2022/04/07 06:49:52;;;;;;;12.77;5.05;;;15.00;99.90;;;;;;5053258;28;20036;-52
2022/04/07 06:52:18;;;;;;;9.65;4.15;;;15.00;99.90;;;;;;5053176;28;20032;-52
2022/04/07 06:54:45;;;;;;;8.45;3.70;;;15.20;99.90;;;;;;5019269;28;20400;-52
2022/04/07 06:57:11;;;;;;;9.32;3.53;;;15.10;99.90;;;;;;5043940;28;20056;-53
2022/04/07 06:59:37;;;;;;;7.47;3.08;;;15.20;99.90;;;;;;5053233;28;20059;-50
2022/04/07 07:02:03;;;;;;;6.55;2.65;;;15.10;99.90;;;;;;5053422;28;20033;-50
2022/04/07 07:04:32;;;;;;;4.80;2.40;;;14.80;99.90;;;;;;5052264;28;20037;-50
2022/04/07 07:06:58;;;;;;;11.82;3.13;;;14.80;99.90;;;;;;5035422;28;20076;-50
2022/04/07 07:09:25;;;;;;;7.35;3.08;;;14.90;99.90;;;;;;5053310;28;20029;-50
2022/04/07 07:11:51;;;;;;;6.50;2.25;;;14.60;99.90;;;;;;5052887;28;20404;-51
2022/04/07 07:14:17;;;;;;;8.60;2.85;;;14.80;99.90;;;;;;5052935;28;20033;-51
2022/04/07 07:16:43;;;;;;;5.07;2.80;;;14.70;99.90;;;;;;5053160;28;20035;-51
2022/04/07 07:19:10;;;;;;;7.57;2.63;;;14.50;99.90;;;;;;5053011;28;20033;-51
2022/04/07 07:21:36;;;;;;;9.65;3.85;;;14.40;99.90;;;;;;5041962;28;20038;-52
2022/04/07 07:24:02;;;;;;;13.68;3.53;;;14.50;99.90;;;;;;5056416;28;20079;-52
2022/04/07 07:26:28;;;;;;;7.78;2.92;;;14.70;99.90;;;;;;5057009;28;20416;-52
2022/04/07 07:28:54;;;;;;;10.57;3.83;;;14.80;99.90;;;;;;5070525;28;20124;-52
2022/04/07 07:31:19;;;;;;;13.07;4.55;;;14.80;99.90;;;;;;5030891;28;20046;-52
2022/04/07 07:33:45;;;;;;;4.90;3.35;;;14.70;99.90;;;;;;5019048;28;20021;-52
2022/04/07 07:36:11;;;;;;;10.65;5.05;;;14.60;99.90;;;;;;5040382;28;20092;-52
2022/04/07 07:38:36;;;;;;;10.77;5.40;;;14.70;99.90;;;;;;5039631;28;20366;-51
2022/04/07 07:41:02;;;;;;;19.52;10.18;;;14.80;99.90;;;;;;5042768;28;20031;-52
2022/04/07 07:43:28;;;;;;;20.00;11.80;;;14.80;99.90;;;;;;5031098;28;20544;-52
2022/04/07 07:45:54;;;;;;;17.52;7.57;;;14.80;99.90;;;;;;5030115;28;20045;-52
2022/04/07 07:48:27;;;;;;;12.55;5.20;;;14.90;99.90;;;;;;5024328;28;20442;-52
2022/04/07 07:50:54;;;;;;;11.73;4.60;;;14.70;99.90;;;;;;5023483;28;20453;-52
2022/04/07 07:53:20;;;;;;;9.35;4.50;;;14.80;99.90;;;;;;5030636;28;20116;-52
2022/04/07 07:55:46;;;;;;;5.55;3.00;;;14.70;99.90;;;;;;5041576;28;20132;-52
2022/04/07 07:58:13;;;;;;;8.05;2.90;;;14.70;99.90;;;;;;5006022;28;20069;-50
2022/04/07 08:00:39;;;;;;;9.55;2.78;;;14.70;99.90;;;;;;5024477;28;20059;-49
2022/04/07 08:03:05;;;;;;;6.65;3.15;;;14.80;99.90;;;;;;5019771;28;20114;-48
2022/04/07 08:05:30;;;;;;;6.40;3.67;;;14.90;99.90;;;;;;4995270;28;20411;-51
2022/04/07 08:07:56;;;;;;;8.10;3.25;;;15.00;99.90;;;;;;5023947;28;20492;-50
2022/04/07 08:10:22;;;;;;;4.85;2.53;;;15.00;99.90;;;;;;5030456;28;20049;-52
2022/04/07 08:12:48;;;;;;;7.20;2.03;;;15.00;99.90;;;;;;5024718;28;20035;-50
2022/04/07 08:15:14;;;;;;;4.65;1.73;;;14.90;99.90;;;;;;5015710;28;20126;-54
2022/04/07 08:17:39;;;;;;;4.22;1.85;;;14.80;99.90;;;;;;5021911;28;20030;-51
2022/04/07 08:20:07;;;;;;;4.22;1.80;;;14.80;99.90;;;;;;5013411;28;20045;-54
2022/04/07 08:22:33;;;;;;;4.47;2.42;;;14.90;99.90;;;;;;5014304;28;20033;-52
2022/04/07 08:24:59;;;;;;;8.02;1.73;;;15.10;99.90;;;;;;5025045;28;20594;-53
2022/04/07 08:27:25;;;;;;;6.63;2.33;;;15.10;99.90;;;;;;5018706;28;20041;-58
2022/04/07 08:29:51;;;;;;;3.10;1.38;;;15.40;99.90;;;;;;5018121;28;20057;-55
2022/04/07 08:32:17;;;;;;;2.20;1.23;;;15.50;99.90;;;;;;5024098;28;20025;-54
2022/04/07 08:34:43;;;;;;;4.68;1.30;;;15.60;99.90;;;;;;5022051;28;20038;-57
2022/04/07 08:37:09;;;;;;;8.90;1.80;;;;;;;;;;5020061;28;20033;-53
2022/04/07 08:39:35;;;;;;;3.45;1.17;;;;;;;;;;5017939;28;20036;-56
2022/04/07 08:42:04;;;;;;;4.32;1.50;;;;;;;;;;5017461;28;20061;-55
2022/04/07 08:44:33;;;;;;;2.58;1.50;;;;;;;;;;5019176;28;20029;-53
2022/04/07 08:47:00;;;;;;;5.00;1.60;;;;;;;;;;5029283;28;20094;-55
2022/04/07 08:49:29;;;;;;;2.80;1.42;;;;;;;;;;5024964;28;20206;-53
2022/04/07 08:51:56;;;;;;;6.70;2.00;;;;;;;;;;5020792;28;20492;-52
2022/04/07 08:54:22;;;;;;;2.40;1.63;;;;;;;;;;5025089;28;20030;-51
2022/04/07 08:56:49;;;;;;;6.88;3.85;;;;;;;;;;5009138;28;20033;-49
2022/04/07 08:59:15;;;;;;;2.58;1.55;;;;;;;;;;5027912;28;20398;-54
2022/04/07 09:01:41;;;;;;;4.78;2.03;;;;;;;;;;5022574;28;20033;-53
2022/04/07 09:04:08;;;;;;;7.82;3.13;;;;;;;;;;5023008;28;20041;-50
2022/04/07 09:06:38;;;;;;;5.40;1.80;;;;;;;;;;5025349;28;20025;-49
2022/04/07 09:09:18;;;;;;;8.23;2.33;;;;;;;;;;5023581;28;20112;-49
2022/04/07 09:11:44;;;;;;;3.28;1.80;;;;;;;;;;5020157;28;20513;-49
2022/04/07 09:14:11;;;;;;;4.57;1.77;;;;;;;;;;5022636;28;20033;-50
2022/04/07 09:16:38;;;;;;;4.63;2.17;;;;;;;;;;5022509;28;20402;-49
2022/04/07 09:19:04;;;;;;;4.40;1.70;;;15.10;99.90;;;;;;5024383;28;20034;-50
2022/04/07 09:21:34;;;;;;;5.70;2.25;;;15.20;99.90;;;;;;5025035;28;20022;-49
2022/04/07 09:24:05;;;;;;;5.68;2.00;;;15.20;99.90;;;;;;4992794;28;20029;-49
2022/04/07 09:26:33;;;;;;;4.82;2.00;;;15.20;99.90;;;;;;5022105;28;20167;-49
2022/04/07 09:29:07;;;;;;;2.80;1.73;;;15.30;99.90;;;;;;5022219;28;20025;-49
2022/04/07 09:31:39;;;;;;;5.50;2.88;;;15.40;99.90;;;;;;5022139;28;20068;-52
2022/04/07 09:34:06;;;;;;;;;;;15.70;99.90;;;;;;5036975;28;20550;-50
2022/04/07 09:36:31;;;;;;;6.13;2.38;;;15.80;99.90;;;;;;4989247;28;19915;-51
2022/04/07 09:39:00;;;;;;;14.60;3.88;;;16.00;99.90;;;;;;5035472;28;20040;-50
2022/04/07 09:41:32;;;;;;;8.15;2.75;;;15.80;99.90;;;;;;5038121;28;20060;-50
2022/04/07 09:44:00;;;;;;;15.00;3.70;;;15.70;99.90;;;;;;5038423;28;20042;-49
2022/04/07 09:46:38;;;;;;;5.43;2.90;;;15.50;99.90;;;;;;5048275;28;20347;-50
2022/04/07 09:49:09;;;;;;;20.60;4.93;;;15.20;99.90;;;;;;5021064;28;20400;-50
2022/04/07 09:51:46;;;;;;;7.95;3.70;;;15.30;99.90;;;;;;5037888;28;20044;-50
2022/04/07 09:54:15;;;;;;;13.05;4.00;;;15.00;99.90;;;;;;5022697;28;20100;-51
2022/04/07 09:56:42;;;;;;;9.25;4.35;;;15.20;99.90;;;;;;5038132;28;20025;-50
2022/04/07 09:59:09;;;;;;;8.82;4.47;;;15.20;99.90;;;;;;5035966;28;20045;-51
2022/04/07 10:01:38;;;;;;;13.63;4.78;;;15.20;99.90;;;;;;5037026;28;20037;-50
2022/04/07 10:04:04;;;;;;;6.57;3.55;;;15.20;99.90;;;;;;5033886;28;20029;-52
2022/04/07 10:06:32;;;;;;;7.82;4.03;;;15.30;99.90;;;;;;5000401;28;20091;-51
2022/04/07 10:09:02;;;;;;;11.32;3.50;;;15.50;99.90;;;;;;5019732;28;20025;-50
2022/04/07 10:11:31;;;;;;;9.25;4.82;;;15.40;99.90;;;;;;5023182;28;20092;-51
2022/04/07 10:13:58;;;;;;;8.45;4.53;;;15.50;99.90;;;;;;5022051;28;20029;-51
2022/04/07 10:16:25;;;;;;;9.77;4.22;;;15.60;99.90;;;;;;5023374;28;20096;-50
2022/04/07 10:19:03;;;;;;;7.28;3.67;;;15.60;99.90;;;;;;5023009;28;20117;-50
2022/04/07 10:21:51;;;;;;;9.05;3.05;;;15.40;99.90;;;;;;5024955;28;20037;-50
2022/04/07 10:24:26;;;;;;;9.85;4.32;;;15.40;99.90;;;;;;5021469;28;20044;-50
2022/04/07 10:26:53;;;;;;;10.27;4.93;;;15.50;99.90;;;;;;5021851;28;20033;-51
2022/04/07 10:29:22;;;;;;;9.50;4.53;;;15.60;99.90;;;;;;5021913;28;20034;-51
2022/04/07 10:32:10;;;;;;;10.57;5.28;;;15.60;99.90;;;;;;5026415;28;20034;-50
2022/04/07 10:34:36;;;;;;;5.20;3.17;;;15.70;99.90;;;;;;5018416;28;20021;-50
2022/04/07 10:37:06;;;;;;;6.43;3.63;;;15.60;99.90;;;;;;5019668;28;20029;-50
2022/04/07 10:39:32;;;;;;;7.30;2.70;;;15.80;99.90;;;;;;5024656;28;20085;-47
2022/04/07 10:41:59;;;;;;;5.05;2.92;;;15.60;99.90;;;;;;5024013;28;20056;-52
2022/04/07 10:44:26;;;;;;;6.85;3.10;;;15.40;99.90;;;;;;5018127;28;20083;-51
2022/04/07 10:47:06;;;;;;;10.10;3.35;;;15.50;99.90;;;;;;5022216;28;20082;-52
2022/04/07 10:49:34;;;;;;;6.75;2.92;;;15.40;99.90;;;;;;5021357;28;20057;-51
2022/04/07 10:52:06;;;;;;;6.05;3.05;;;15.30;99.90;;;;;;5022216;28;20042;-51
2022/04/07 10:54:33;;;;;;;5.03;3.03;;;15.20;99.90;;;;;;5020300;28;20367;-52
2022/04/07 10:57:01;;;;;;;9.65;4.22;;;15.20;99.90;;;;;;5020378;28;20025;-51
2022/04/07 10:59:37;;;;;;;5.95;3.13;;;15.00;99.90;;;;;;5022208;28;20433;-51
2022/04/07 11:02:11;;;;;;;8.35;3.45;;;15.20;99.90;;;;;;5027028;28;20041;-52
2022/04/07 11:04:42;;;;;;;7.10;3.67;;;15.10;99.90;;;;;;5022486;28;20041;-51
2022/04/07 11:07:08;;;;;;;8.45;3.47;;;15.20;99.90;;;;;;5024775;28;20037;-51
2022/04/07 11:09:53;;;;;;;7.43;4.30;;;15.20;99.90;;;;;;5019439;28;20450;-51
2022/04/07 11:12:31;;;;;;;6.10;3.83;;;15.50;99.90;;;;;;5016999;28;20684;-50
2022/04/07 11:15:03;;;;;;;5.60;3.70;;;15.50;99.90;;;;;;5021552;28;20087;-52
2022/04/07 11:17:37;;;;;;;5.20;3.40;;;15.40;99.90;;;;;;5022575;28;20037;-52
2022/04/07 11:20:04;;;;;;;8.60;4.18;;;15.30;99.90;;;;;;5021763;28;20087;-51
2022/04/07 11:22:51;;;;;;;4.63;3.15;;;15.50;99.90;;;;;;5003472;28;20045;-51
2022/04/07 11:25:22;;;;;;;8.18;3.80;;;15.60;99.90;;;;;;5021291;28;20116;-51
2022/04/07 11:28:07;;;;;;;7.22;3.78;;;15.90;99.90;;;;;;5021406;28;20033;-52
2022/04/07 11:30:37;;;;;;;7.05;3.10;;;16.50;99.90;;;;;;5020385;28;20981;-51
2022/04/07 11:33:27;;;;;;;5.90;3.97;;;16.70;99.90;;;;;;5025452;28;20116;-52
2022/04/07 11:35:58;;;;;;;7.43;4.85;;;17.00;99.90;;;;;;5021031;28;20094;-52
2022/04/07 11:38:57;;;;;;;4.82;3.05;;;17.20;99.90;;;;;;5020395;28;20322;-52
2022/04/07 11:41:22;;;;;;;9.80;5.95;;;17.00;99.90;;;;;;4983032;28;20081;-50
2022/04/07 11:43:50;;;;;;;9.77;4.50;;;17.00;99.90;;;;;;4980087;28;20042;-51
2022/04/07 11:46:36;;;;;;;9.32;5.80;;;16.90;99.90;;;;;;4966637;28;20038;-53
2022/04/07 11:49:04;;;;;;;5.10;3.13;;;16.80;99.90;;;;;;4981702;28;20042;-50
2022/04/07 11:51:33;;;;;;;12.23;5.45;;;16.80;99.90;;;;;;4941946;28;20587;-51
2022/04/07 11:53:59;;;;;;;5.28;3.60;;;16.90;99.90;;;;;;4982708;28;20230;-51
2022/04/07 11:56:31;;;;;;;5.88;3.08;;;17.00;99.90;;;;;;4938523;28;20930;-51
2022/04/07 11:58:59;;;;;;;4.72;2.10;;;16.90;99.90;;;;;;4980256;28;20473;-52
2022/04/07 12:01:25;;;;;;;6.15;2.85;;;16.60;99.90;;;;;;4982030;28;20043;-51
2022/04/07 12:03:52;;;;;;;53.53;26.75;;;16.60;99.90;;;;;;4986375;28;20157;-51
2022/04/07 12:06:22;;;;;;;16.67;9.00;;;16.40;99.90;;;;;;4980250;28;20453;-52
2022/04/07 12:08:47;;;;;;;3.70;2.40;;;16.20;99.90;;;;;;4977947;28;20031;-52
2022/04/07 12:11:13;;;;;;;13.55;4.97;;;16.30;99.90;;;;;;4986803;28;20050;-51
2022/04/07 12:13:39;;;;;;;32.35;13.15;;;16.20;99.90;;;;;;4950366;28;20039;-51
2022/04/07 12:16:09;;;;;;;15.55;9.52;;;16.10;99.90;;;;;;4957432;28;20092;-51
2022/04/07 12:18:35;;;;;;;18.30;6.20;;;16.20;99.90;;;;;;5017677;28;20076;-52
2022/04/07 12:21:02;;;;;;;9.70;4.25;;;16.30;99.90;;;;;;5025287;28;20064;-52
2022/04/07 12:23:29;;;;;;;7.53;3.72;;;16.40;99.90;;;;;;5023801;28;20065;-50
2022/04/07 12:26:02;;;;;;;9.32;4.25;;;16.30;99.90;;;;;;5024775;28;20051;-52
2022/04/07 12:28:38;;;;;;;5.55;2.17;;;16.40;99.90;;;;;;5046362;28;20052;-51
2022/04/07 12:31:12;;;;;;;3.80;2.58;;;16.70;99.90;;;;;;5024368;28;20046;-52
2022/04/07 12:33:42;;;;;;;18.38;4.60;;;16.70;99.90;;;;;;5024327;28;20033;-50
2022/04/07 12:36:13;;;;;;;9.18;1.67;;;16.70;99.90;;;;;;5005330;28;20049;-51
2022/04/07 12:38:40;;;;;;;26.38;12.40;;;16.70;99.90;;;;;;5025935;28;20037;-51
2022/04/07 12:41:13;;;;;;;11.43;5.28;;;16.60;99.90;;;;;;5018119;28;20029;-52
2022/04/07 12:43:53;;;;;;;10.15;3.88;;;16.60;99.90;;;;;;5016716;28;20460;-52
2022/04/07 12:46:19;;;;;;;9.98;5.90;;;16.40;99.90;;;;;;5019255;28;20490;-51
2022/04/07 12:49:05;;;;;;;4.82;2.55;;;16.60;99.90;;;;;;5026327;28;20162;-50
2022/04/07 12:51:38;;;;;;;4.63;1.95;;;16.50;99.90;;;;;;5011255;28;20042;-52
2022/04/07 12:54:04;;;;;;;;;;;16.50;99.90;;;;;;5002463;28;20034;-51